Time;durP1;ratioP1;P1;durP2;ratioP2;P2;SDS_P1;SDS_P2;PMS_P1;PMS_P2;Temp;Humidity;BMP_temperature;BMP_pressure;BME280_temperature;BME280_humidity;BME280_pressure;Samples;Min_cycle;Max_cycle;Signal;HPM_P1;HPM_P2
2022/05/01 00:04:31;;;;;;;28.80;25.77;;;13.10;99.90;;;;;;10335368;28;20227;-78
2022/05/01 00:09:34;;;;;;;30.50;27.33;;;13.10;99.90;;;;;;10349751;28;20601;-79
2022/05/01 00:14:37;;;;;;;27.47;24.80;;;13.10;99.90;;;;;;10347375;28;20261;-78
2022/05/01 00:19:40;;;;;;;31.27;27.60;;;13.20;99.90;;;;;;10349155;28;20195;-78
2022/05/01 00:24:42;;;;;;;35.50;28.90;;;13.20;99.90;;;;;;10346173;28;20211;-78
2022/05/01 00:29:48;;;;;;;33.37;29.00;;;13.20;99.90;;;;;;10334564;28;20210;-79
2022/05/01 00:40:11;;;;;;;33.27;29.50;;;13.10;99.90;;;;;;10339680;28;20260;-78
2022/05/01 00:45:14;;;;;;;31.53;28.13;;;13.10;99.90;;;;;;10345842;28;20238;-78
2022/05/01 00:50:17;;;;;;;32.40;28.80;;;13.10;99.90;;;;;;10317639;28;20234;-79
2022/05/01 00:55:20;;;;;;;32.00;28.63;;;13.10;99.90;;;;;;10315963;28;20326;-79
2022/05/01 01:00:24;;;;;;;30.90;27.50;;;13.10;99.90;;;;;;10335300;28;20322;-79
2022/05/01 01:05:26;;;;;;;29.27;26.27;;;13.10;99.90;;;;;;10332686;28;20266;-79
2022/05/01 01:10:28;;;;;;;29.73;26.50;;;13.10;99.90;;;;;;10318445;28;20601;-79
2022/05/01 01:15:31;;;;;;;29.60;26.60;;;13.10;99.90;;;;;;10303390;28;20234;-78
2022/05/01 01:20:42;;;;;;;27.70;24.70;;;13.10;99.90;;;;;;10320140;28;20580;-79
2022/05/01 01:25:44;;;;;;;28.70;25.50;;;13.10;99.90;;;;;;10319337;28;20219;-79
2022/05/01 01:36:08;;;;;;;31.30;26.97;;;13.10;99.90;;;;;;10317373;28;20215;-79
2022/05/01 01:41:10;;;;;;;30.07;25.90;;;13.10;99.90;;;;;;10318417;28;20324;-78
2022/05/01 01:46:12;;;;;;;34.13;27.07;;;13.10;99.90;;;;;;10324800;28;20195;-78
2022/05/01 01:51:16;;;;;;;31.37;27.67;;;13.10;99.90;;;;;;10341299;28;20642;-78
2022/05/01 01:56:18;;;;;;;30.93;26.90;;;13.10;99.90;;;;;;10324587;28;20683;-78
2022/05/01 02:01:20;;;;;;;32.17;27.03;;;13.10;99.90;;;;;;10303615;28;20223;-78
2022/05/01 02:06:24;;;;;;;30.60;27.40;;;13.10;99.90;;;;;;10328268;28;20679;-78
2022/05/01 02:11:26;;;;;;;31.63;28.20;;;13.10;99.90;;;;;;10347984;28;20249;-79
2022/05/01 02:16:29;;;;;;;33.33;28.90;;;13.10;99.90;;;;;;10342106;28;20222;-79
2022/05/01 02:21:35;;;;;;;28.43;25.30;;;13.10;99.90;;;;;;10309609;28;20223;-79
2022/05/01 02:26:38;;;;;;;29.00;25.60;;;13.10;99.90;;;;;;10341137;28;20195;-79
2022/05/01 02:31:41;;;;;;;29.80;26.70;;;13.10;99.90;;;;;;10339306;28;20257;-79
2022/05/01 02:36:45;;;;;;;32.90;28.60;;;13.10;99.90;;;;;;10328215;28;20230;-79
2022/05/01 02:41:47;;;;;;;29.97;26.73;;;13.10;99.90;;;;;;10342097;28;20223;-78
2022/05/01 02:46:49;;;;;;;45.83;28.57;;;13.10;99.90;;;;;;10324384;28;20227;-79
2022/05/01 02:51:53;;;;;;;31.20;27.80;;;13.00;99.90;;;;;;10322745;28;20254;-79
2022/05/01 02:56:55;;;;;;;30.77;27.70;;;12.90;99.90;;;;;;10328487;28;20265;-78
2022/05/01 03:01:57;;;;;;;31.10;27.17;;;12.80;99.90;;;;;;10343238;28;20215;-79
2022/05/01 03:07:04;;;;;;;32.80;28.03;;;12.80;99.90;;;;;;10321753;28;20191;-79
2022/05/01 03:12:07;;;;;;;34.17;28.40;;;12.80;99.90;;;;;;10335986;28;20654;-79
2022/05/01 03:17:09;;;;;;;36.60;31.07;;;12.80;99.90;;;;;;10340047;28;20634;-78
2022/05/01 03:22:13;;;;;;;36.70;28.33;;;12.80;99.90;;;;;;10331542;28;20226;-78
2022/05/01 03:27:15;;;;;;;35.40;29.53;;;12.70;99.90;;;;;;10347910;28;20201;-78
2022/05/01 03:32:17;;;;;;;34.90;28.37;;;12.70;99.90;;;;;;10329540;28;20293;-77
2022/05/01 03:37:21;;;;;;;40.30;29.80;;;12.70;99.90;;;;;;10326969;28;20313;-78
2022/05/01 03:42:23;;;;;;;35.33;31.00;;;12.70;99.90;;;;;;10344494;28;20227;-78
2022/05/01 03:47:25;;;;;;;37.07;30.00;;;12.70;99.90;;;;;;10338539;28;20253;-78
2022/05/01 03:52:29;;;;;;;36.67;30.00;;;12.80;99.90;;;;;;10341480;28;20270;-78
2022/05/01 03:57:32;;;;;;;40.33;30.90;;;12.80;99.90;;;;;;10340158;28;20662;-77
2022/05/01 04:02:40;;;;;;;35.90;31.00;;;12.80;99.90;;;;;;10335552;28;20215;-78
2022/05/01 04:07:44;;;;;;;35.73;30.80;;;12.80;99.90;;;;;;10322599;28;20214;-78
2022/05/01 04:12:47;;;;;;;33.87;29.90;;;12.80;99.90;;;;;;10335034;28;20226;-78
2022/05/01 04:17:49;;;;;;;35.50;28.57;;;12.80;99.90;;;;;;10308726;28;20346;-77
2022/05/01 04:22:53;;;;;;;34.77;28.50;;;12.80;99.90;;;;;;10331336;28;20577;-78
2022/05/01 04:27:59;;;;;;;35.60;28.77;;;12.80;99.90;;;;;;10338670;28;20199;-78
2022/05/01 04:33:02;;;;;;;33.23;29.60;;;12.80;99.90;;;;;;10327647;28;20321;-78
2022/05/01 04:38:08;;;;;;;32.67;28.43;;;12.80;99.90;;;;;;10337219;28;20283;-78
2022/05/01 04:43:13;;;;;;;33.73;28.30;;;12.80;99.90;;;;;;10332221;28;20219;-78
2022/05/01 04:48:17;;;;;;;32.20;27.37;;;12.80;99.90;;;;;;10325841;28;20207;-78
2022/05/01 04:53:22;;;;;;;30.07;26.97;;;12.80;99.90;;;;;;10329753;28;20226;-78
2022/05/01 04:58:25;;;;;;;29.90;26.20;;;12.80;99.90;;;;;;10344916;28;20219;-78
2022/05/01 05:03:27;;;;;;;31.37;27.33;;;12.80;99.90;;;;;;10343137;28;20250;-79
2022/05/01 05:13:52;;;;;;;29.67;26.67;;;12.90;99.90;;;;;;10325025;28;20246;-78
2022/05/01 05:18:54;;;;;;;30.50;27.40;;;12.90;99.90;;;;;;10306160;28;20278;-78
2022/05/01 05:23:57;;;;;;;34.73;30.30;;;12.90;99.90;;;;;;10307757;28;20287;-78
2022/05/01 05:28:59;;;;;;;30.93;27.53;;;12.90;99.90;;;;;;10324923;28;20195;-78
2022/05/01 05:34:02;;;;;;;32.87;29.40;;;12.90;99.90;;;;;;10323290;28;20258;-78
2022/05/01 05:39:05;;;;;;;33.53;29.60;;;12.90;99.90;;;;;;10303151;28;20232;-78
2022/05/01 05:44:08;;;;;;;31.40;28.07;;;12.90;99.90;;;;;;10327336;28;20691;-77
2022/05/01 05:49:10;;;;;;;31.03;27.63;;;12.90;99.90;;;;;;10287569;28;20286;-77
2022/05/01 05:54:13;;;;;;;32.00;27.60;;;13.00;99.90;;;;;;10288060;28;20225;-78
2022/05/01 05:59:16;;;;;;;31.10;27.83;;;13.00;99.90;;;;;;10289202;28;20306;-77
2022/05/01 06:04:18;;;;;;;31.83;28.07;;;13.00;99.90;;;;;;10320745;28;20216;-78
2022/05/01 06:09:24;;;;;;;29.93;26.83;;;13.00;99.90;;;;;;10299404;28;20567;-78
2022/05/01 06:14:26;;;;;;;29.00;25.90;;;13.00;99.90;;;;;;10316544;28;20695;-78
2022/05/01 06:19:28;;;;;;;29.57;26.40;;;13.10;99.90;;;;;;10302052;28;20589;-78
2022/05/01 06:24:31;;;;;;;30.80;25.83;;;13.10;99.90;;;;;;10314280;28;20337;-78
2022/05/01 06:29:33;;;;;;;30.63;27.33;;;13.10;99.90;;;;;;10313964;28;20203;-78
2022/05/01 06:34:36;;;;;;;30.60;26.10;;;13.20;99.90;;;;;;10304282;28;20228;-77
2022/05/01 06:39:40;;;;;;;30.77;27.47;;;13.30;99.90;;;;;;10322468;28;20691;-78
2022/05/01 06:44:42;;;;;;;29.77;25.30;;;13.40;99.90;;;;;;10327535;28;20226;-78
2022/05/01 06:49:44;;;;;;;27.70;24.90;;;13.50;99.90;;;;;;10300983;28;20230;-81
2022/05/01 06:54:48;;;;;;;27.97;25.13;;;13.60;99.90;;;;;;10312572;28;20230;-79
2022/05/01 06:59:50;;;;;;;27.53;24.70;;;13.70;99.90;;;;;;10352941;28;20231;-80
2022/05/01 07:04:52;;;;;;;29.90;26.70;;;13.80;99.90;;;;;;10350951;28;20584;-80
2022/05/01 07:09:56;;;;;;;27.43;24.53;;;13.90;99.90;;;;;;10332553;28;20199;-80
2022/05/01 07:14:58;;;;;;;24.93;22.23;;;14.00;99.90;;;;;;10314674;28;20722;-81
2022/05/01 07:20:02;;;;;;;29.53;25.00;;;14.10;99.90;;;;;;10328183;28;20594;-81
2022/05/01 07:25:06;;;;;;;24.37;21.87;;;14.20;99.90;;;;;;10340013;28;20227;-81
2022/05/01 07:30:09;;;;;;;25.30;22.60;;;14.20;99.90;;;;;;10313995;28;20203;-81
2022/05/01 07:35:14;;;;;;;25.53;22.80;;;14.20;99.90;;;;;;10315198;28;20241;-81
2022/05/01 07:40:20;;;;;;;25.47;22.87;;;14.30;99.90;;;;;;10314360;28;20207;-81
2022/05/01 07:45:22;;;;;;;26.17;23.60;;;14.40;99.90;;;;;;10361276;28;20302;-80
2022/05/01 07:50:24;;;;;;;22.93;20.63;;;14.50;99.90;;;;;;10334224;28;20278;-80
2022/05/01 07:55:28;;;;;;;23.10;20.80;;;14.50;99.90;;;;;;10316625;28;20287;-80
2022/05/01 08:00:30;;;;;;;25.13;22.53;;;14.60;99.90;;;;;;10341807;28;20203;-81
2022/05/01 08:05:32;;;;;;;24.73;22.20;;;14.70;99.90;;;;;;10338992;28;20584;-81
2022/05/01 08:10:36;;;;;;;24.40;21.27;;;14.80;99.90;;;;;;10315475;28;20245;-81
2022/05/01 08:15:38;;;;;;;22.20;20.00;;;15.00;99.90;;;;;;10331986;28;20313;-82
2022/05/01 08:26:03;;;;;;;22.13;19.93;;;15.20;99.90;;;;;;10306027;28;20202;-83
2022/05/01 08:31:06;;;;;;;19.67;17.87;;;15.50;99.90;;;;;;10298896;28;20719;-83
2022/05/01 08:36:09;;;;;;;21.83;19.63;;;15.80;99.90;;;;;;10306622;28;20940;-81
2022/05/01 08:41:12;;;;;;;18.40;16.60;;;15.90;99.90;;;;;;10358567;28;20679;-80
2022/05/01 08:46:27;;;;;;;20.67;18.47;;;15.90;99.90;;;;;;10360088;28;20259;-82
2022/05/01 08:51:32;;;;;;;21.10;17.87;;;15.90;99.90;;;;;;10343680;28;20316;-81
2022/05/01 08:56:37;;;;;;;19.53;17.63;;;16.10;99.90;;;;;;10360686;28;20230;-82
2022/05/01 09:01:42;;;;;;;21.87;19.20;;;16.10;99.90;;;;;;10333407;28;20223;-82
2022/05/01 09:06:45;;;;;;;19.43;17.60;;;16.00;99.90;;;;;;10354714;28;20206;-82
2022/05/01 09:17:13;;;;;;;17.60;16.00;;;16.00;99.90;;;;;;10331335;28;20219;-82
2022/05/01 09:22:16;;;;;;;19.00;17.30;;;15.90;99.90;;;;;;10330525;28;20682;-82
2022/05/01 09:27:27;;;;;;;20.57;18.37;;;16.00;99.90;;;;;;10306102;28;20287;-82
2022/05/01 09:32:37;;;;;;;19.90;18.00;;;16.10;99.90;;;;;;10338881;28;20227;-82
2022/05/01 09:37:39;;;;;;;18.90;17.07;;;16.10;99.90;;;;;;10308957;28;20223;-82
2022/05/01 09:42:42;;;;;;;18.10;16.30;;;16.20;99.90;;;;;;10315106;28;20226;-82
2022/05/01 09:47:46;;;;;;;19.07;17.10;;;16.40;99.90;;;;;;10348296;28;20210;-81
2022/05/01 09:52:56;;;;;;;17.63;16.03;;;16.50;99.90;;;;;;10340613;28;20321;-82
2022/05/01 09:58:08;;;;;;;21.17;15.50;;;16.50;99.90;;;;;;10324339;28;20215;-81
2022/05/01 10:03:24;;;;;;;17.17;15.47;;;16.80;99.90;;;;;;10321032;28;20223;-81
2022/05/01 10:08:27;;;;;;;16.33;14.73;;;17.10;99.90;;;;;;10319485;28;20751;-81
2022/05/01 10:13:31;;;;;;;15.10;13.70;;;17.20;99.90;;;;;;10327474;28;20223;-82
2022/05/01 10:18:33;;;;;;;15.80;14.50;;;17.30;99.90;;;;;;10313256;28;20378;-82
2022/05/01 10:23:36;;;;;;;17.73;16.20;;;17.30;99.90;;;;;;10329578;28;20230;-82
2022/05/01 10:29:22;;;;;;;16.87;15.20;;;17.20;99.90;;;;;;10339343;28;20187;-82
2022/05/01 10:34:39;;;;;;;16.80;15.20;;;17.00;99.90;;;;;;10334475;28;20245;-81
2022/05/01 10:39:42;;;;;;;15.67;14.20;;;16.90;99.90;;;;;;10334429;28;20321;-82
2022/05/01 10:44:47;;;;;;;14.60;13.30;;;16.90;99.90;;;;;;10338355;28;20225;-82
2022/05/01 10:49:49;;;;;;;14.83;13.33;;;17.00;99.90;;;;;;10341289;28;20192;-82
2022/05/01 10:54:56;;;;;;;15.20;13.63;;;17.10;99.90;;;;;;10339580;28;20277;-82
2022/05/01 11:00:11;;;;;;;15.80;14.30;;;17.20;99.90;;;;;;10328618;28;20302;-81
2022/05/01 11:05:43;;;;;;;14.57;13.17;;;17.30;99.90;;;;;;10327898;28;20238;-82
2022/05/01 11:10:45;;;;;;;12.20;10.90;;;17.40;99.90;;;;;;10314190;28;20206;-82
2022/05/01 11:15:49;;;;;;;18.70;14.83;;;17.50;99.90;;;;;;10318757;28;20223;-81
2022/05/01 11:20:52;;;;;;;13.60;12.40;;;17.50;99.90;;;;;;10321735;28;20234;-82
2022/05/01 11:26:06;;;;;;;13.50;12.30;;;17.60;99.90;;;;;;10313261;28;20203;-82
2022/05/01 11:31:45;;;;;;;13.07;11.87;;;17.60;99.90;;;;;;10339539;28;20211;-83
2022/05/01 11:36:54;;;;;;;13.50;12.10;;;17.70;99.90;;;;;;10303031;28;20221;-83
2022/05/01 11:42:00;;;;;;;12.90;11.70;;;17.80;99.90;;;;;;10324712;28;20223;-83
2022/05/01 11:47:07;;;;;;;13.40;12.20;;;17.90;99.90;;;;;;10310868;28;20593;-83
2022/05/01 11:52:10;;;;;;;14.33;12.93;;;18.00;99.90;;;;;;10323214;28;20602;-82
2022/05/01 12:02:33;;;;;;;14.77;12.30;;;18.20;99.90;;;;;;10319549;28;20598;-83
2022/05/01 12:07:35;;;;;;;12.67;11.57;;;18.20;99.90;;;;;;10318959;28;20199;-83
2022/05/01 12:12:37;;;;;;;14.57;13.10;;;18.10;99.90;;;;;;10309618;28;20226;-82
2022/05/01 12:17:42;;;;;;;12.73;11.43;;;18.00;98.90;;;;;;10335369;28;20259;-82
2022/05/01 12:22:44;;;;;;;14.07;12.67;;;17.80;99.10;;;;;;10330316;28;20233;-84
2022/05/01 12:27:47;;;;;;;15.83;12.57;;;17.70;99.90;;;;;;10319135;28;20641;-84
2022/05/01 12:32:57;;;;;;;14.00;12.63;;;17.80;99.90;;;;;;10305579;28;20263;-82
2022/05/01 12:38:00;;;;;;;13.40;12.20;;;17.80;99.80;;;;;;10323150;28;20218;-82
2022/05/01 12:48:23;;;;;;;13.40;12.07;;;18.10;99.90;;;;;;10306790;28;20214;-82
2022/05/01 12:53:27;;;;;;;12.73;11.53;;;18.00;99.90;;;;;;10308980;28;20258;-83
2022/05/01 12:58:31;;;;;;;15.17;13.70;;;17.70;99.90;;;;;;10319338;28;20794;-83
2022/05/01 13:03:36;;;;;;;17.30;15.40;;;17.40;99.90;;;;;;10306553;28;20276;-83
2022/05/01 13:08:40;;;;;;;12.87;11.77;;;17.20;99.90;;;;;;10311863;28;20218;-83
2022/05/01 13:13:46;;;;;;;12.87;11.77;;;17.30;99.90;;;;;;10344291;28;20329;-83
2022/05/01 13:18:51;;;;;;;11.60;10.63;;;17.30;99.90;;;;;;10310287;28;20585;-83
2022/05/01 13:23:56;;;;;;;10.30;9.33;;;17.30;99.50;;;;;;10326514;28;20231;-82
2022/05/01 13:28:58;;;;;;;11.97;10.87;;;17.30;98.40;;;;;;10354538;28;20758;-82
2022/05/01 13:34:02;;;;;;;10.13;9.23;;;17.50;97.80;;;;;;10350073;28;20285;-83
2022/05/01 13:39:07;;;;;;;10.67;9.67;;;17.60;99.10;;;;;;10362088;28;20208;-80
2022/05/01 13:49:31;;;;;;;10.60;9.70;;;17.70;98.40;;;;;;10362131;28;20231;-81
2022/05/01 13:54:33;;;;;;;9.67;8.67;;;17.70;99.50;;;;;;10362878;28;20227;-83
2022/05/01 13:59:35;;;;;;;11.70;10.60;;;17.80;99.30;;;;;;10324600;28;20231;-82
2022/05/01 14:04:39;;;;;;;10.43;9.53;;;17.90;99.90;;;;;;10345434;28;20223;-82
2022/05/01 14:09:41;;;;;;;10.63;9.73;;;17.90;99.90;;;;;;10318166;28;20837;-81
2022/05/01 14:14:45;;;;;;;11.30;10.27;;;17.80;99.90;;;;;;10314320;28;20301;-83
2022/05/01 14:19:51;;;;;;;11.50;10.40;;;17.70;99.40;;;;;;10332225;28;20277;-83
2022/05/01 14:24:53;;;;;;;12.17;11.10;;;17.50;99.90;;;;;;10338536;28;20663;-81
2022/05/01 14:29:56;;;;;;;12.97;11.73;;;17.40;99.90;;;;;;10327839;28;20250;-81
2022/05/01 14:35:05;;;;;;;13.03;11.87;;;17.20;99.90;;;;;;10315766;28;20587;-82
2022/05/01 14:40:10;;;;;;;15.50;14.07;;;17.10;99.90;;;;;;10308727;28;20601;-83
2022/05/01 14:45:16;;;;;;;13.57;12.33;;;17.00;98.50;;;;;;10328578;28;20306;-81
2022/05/01 14:50:19;;;;;;;13.47;12.17;;;16.90;99.60;;;;;;10336752;28;20315;-81
2022/05/01 14:55:24;;;;;;;12.27;11.10;;;16.80;99.90;;;;;;10353398;28;20229;-81
2022/05/01 15:11:15;;;;;;;12.50;11.20;;;16.70;99.90;;;;;;10340798;28;20222;-83
2022/05/01 15:16:28;;;;;;;14.67;13.27;;;16.80;99.90;;;;;;10349819;28;20206;-81
2022/05/01 15:27:13;;;;;;;11.67;10.67;;;17.40;99.90;;;;;;10369806;28;20195;-84
2022/05/01 15:32:20;;;;;;;11.13;10.23;;;17.40;99.90;;;;;;10353093;28;20231;-81
2022/05/01 15:37:30;;;;;;;13.00;11.70;;;17.40;99.90;;;;;;10344816;28;20231;-82
2022/05/01 15:42:38;;;;;;;12.17;11.17;;;17.40;99.90;;;;;;10349848;28;20230;-83
2022/05/01 15:47:40;;;;;;;11.83;10.73;;;17.30;99.90;;;;;;10332844;28;20629;-83
2022/05/01 15:58:04;;;;;;;11.70;10.60;;;17.20;99.90;;;;;;10356092;28;20231;-83
2022/05/01 16:03:07;;;;;;;11.53;10.53;;;17.00;99.90;;;;;;10366118;28;20281;-83
2022/05/01 16:08:20;;;;;;;12.57;11.47;;;16.90;99.90;;;;;;10332367;28;20196;-82
2022/05/01 16:13:30;;;;;;;12.70;11.60;;;16.80;99.90;;;;;;10332368;28;20246;-82
2022/05/01 16:18:37;;;;;;;12.37;11.17;;;16.70;99.90;;;;;;10347730;28;20277;-81
2022/05/01 16:23:47;;;;;;;13.20;12.00;;;16.60;99.90;;;;;;10314830;28;20231;-82
2022/05/01 16:28:56;;;;;;;13.87;12.50;;;16.60;99.90;;;;;;10329196;28;20203;-81
2022/05/01 16:34:04;;;;;;;12.17;10.90;;;16.60;99.90;;;;;;10318007;28;20262;-82
2022/05/01 16:39:09;;;;;;;13.80;12.30;;;16.70;99.90;;;;;;10306323;28;20323;-82
2022/05/01 16:44:12;;;;;;;12.90;11.80;;;16.70;99.90;;;;;;10327439;28;20219;-82
2022/05/01 16:49:15;;;;;;;13.93;12.63;;;16.70;99.90;;;;;;10310954;28;20203;-82
2022/05/01 16:54:19;;;;;;;11.17;10.17;;;16.60;99.90;;;;;;10309167;28;20863;-82
2022/05/01 16:59:24;;;;;;;11.80;10.90;;;16.60;99.90;;;;;;10341782;28;20226;-82
2022/05/01 17:04:33;;;;;;;13.20;12.00;;;16.50;99.90;;;;;;10324559;28;20258;-82
2022/05/01 17:09:45;;;;;;;12.67;11.57;;;16.40;99.90;;;;;;10331769;28;20199;-83
2022/05/01 17:15:09;;;;;;;11.93;10.83;;;16.40;99.90;;;;;;10313378;28;20269;-83
2022/05/01 17:20:15;;;;;;;11.43;10.20;;;16.30;99.90;;;;;;10330434;28;20234;-83
2022/05/01 17:25:21;;;;;;;11.37;10.27;;;16.30;99.90;;;;;;10349420;28;20243;-82
2022/05/01 17:30:26;;;;;;;10.73;9.73;;;16.20;99.90;;;;;;10332832;28;20195;-83
2022/05/01 17:35:29;;;;;;;11.00;10.00;;;16.20;99.90;;;;;;10321544;28;20234;-83
2022/05/01 17:40:34;;;;;;;9.97;9.10;;;16.20;99.90;;;;;;10301565;28;20219;-83
2022/05/01 17:45:37;;;;;;;11.17;10.07;;;16.10;99.90;;;;;;10307085;28;20724;-82
2022/05/01 17:50:41;;;;;;;11.20;10.30;;;16.10;99.90;;;;;;10300286;28;20195;-83
2022/05/01 17:55:45;;;;;;;10.57;9.67;;;16.10;99.90;;;;;;10304348;28;20224;-83
2022/05/01 18:00:55;;;;;;;10.90;10.00;;;16.00;99.90;;;;;;10304604;28;20278;-82
2022/05/01 18:11:33;;;;;;;12.97;11.87;;;16.00;99.90;;;;;;10310732;28;20211;-83
2022/05/01 18:16:44;;;;;;;11.97;10.97;;;15.90;99.90;;;;;;10330404;28;20218;-81
2022/05/01 18:21:57;;;;;;;12.80;11.70;;;15.90;99.90;;;;;;10330990;28;20234;-80
2022/05/01 18:27:08;;;;;;;12.50;11.50;;;15.90;99.90;;;;;;10318644;28;20226;-79
2022/05/01 18:32:14;;;;;;;13.40;10.80;;;15.90;99.90;;;;;;10347173;28;20302;-80
2022/05/01 18:37:23;;;;;;;10.50;9.70;;;15.90;99.90;;;;;;10341874;28;20221;-80
2022/05/01 18:42:27;;;;;;;12.23;10.60;;;16.00;99.90;;;;;;10318712;28;20644;-81
2022/05/01 18:47:29;;;;;;;11.60;10.70;;;15.90;99.90;;;;;;10339746;28;20327;-81
2022/05/01 18:52:32;;;;;;;11.47;10.50;;;15.90;99.90;;;;;;10322073;28;20219;-81
2022/05/01 18:57:38;;;;;;;12.60;11.60;;;15.90;99.90;;;;;;10330025;28;20212;-81
2022/05/01 19:02:40;;;;;;;11.93;10.83;;;15.80;99.90;;;;;;10337832;28;20231;-80
2022/05/01 19:07:48;;;;;;;11.17;10.23;;;15.80;99.90;;;;;;10322655;28;20286;-81
2022/05/01 19:13:22;;;;;;;11.20;10.30;;;15.70;99.90;;;;;;10305996;28;20302;-81
2022/05/01 19:18:34;;;;;;;10.67;9.57;;;15.70;99.90;;;;;;10318565;28;20231;-81
2022/05/01 19:30:00;;;;;;;12.70;11.60;;;15.60;99.90;;;;;;10296680;28;20217;-80
2022/05/01 19:35:10;;;;;;;10.67;9.83;;;15.60;99.90;;;;;;10321801;28;20277;-81
2022/05/01 19:40:22;;;;;;;11.67;10.67;;;15.50;99.90;;;;;;10304758;28;20267;-80
2022/05/01 19:45:37;;;;;;;11.50;10.60;;;15.50;99.90;;;;;;10303327;28;20229;-81
2022/05/01 19:56:12;;;;;;;10.20;9.27;;;15.50;99.90;;;;;;10326599;28;20258;-81
2022/05/01 20:01:18;;;;;;;10.73;9.83;;;15.40;99.90;;;;;;10325813;28;20255;-81
2022/05/01 20:06:22;;;;;;;10.33;9.53;;;15.40;99.90;;;;;;10311847;28;20207;-81
2022/05/01 20:11:26;;;;;;;8.83;8.20;;;15.30;99.90;;;;;;10321661;28;20247;-81
2022/05/01 20:16:34;;;;;;;10.33;9.63;;;15.20;99.90;;;;;;10308260;28;20261;-80
2022/05/01 20:21:41;;;;;;;9.70;9.00;;;15.20;99.90;;;;;;10345370;28;20238;-79
2022/05/01 20:26:50;;;;;;;9.63;8.93;;;15.10;99.90;;;;;;10345170;28;20208;-79
2022/05/01 20:32:04;;;;;;;9.70;8.60;;;15.10;99.90;;;;;;10309625;28;20225;-80
2022/05/01 20:37:14;;;;;;;10.60;9.70;;;15.00;99.90;;;;;;10321213;28;20207;-80
2022/05/01 20:42:23;;;;;;;9.00;8.23;;;15.00;99.90;;;;;;10323686;28;20258;-80
2022/05/01 20:47:47;;;;;;;13.20;9.40;;;14.90;99.90;;;;;;10310046;28;20231;-79
2022/05/01 20:53:03;;;;;;;10.20;9.40;;;14.80;99.90;;;;;;10325566;28;20298;-79
2022/05/01 20:58:08;;;;;;;9.50;8.70;;;14.70;99.90;;;;;;10315750;28;20233;-79
2022/05/01 21:03:14;;;;;;;10.20;9.30;;;14.60;99.90;;;;;;10317671;28;20233;-80
2022/05/01 21:08:16;;;;;;;10.00;9.20;;;14.50;99.90;;;;;;10303936;28;20254;-80
2022/05/01 21:13:20;;;;;;;10.10;9.23;;;14.40;99.90;;;;;;10330606;28;20247;-80
2022/05/01 21:18:24;;;;;;;11.00;10.00;;;14.30;99.90;;;;;;10307661;28;20249;-80
2022/05/01 21:23:26;;;;;;;11.13;10.10;;;14.20;99.90;;;;;;10305923;28;20281;-81
2022/05/01 21:33:46;;;;;;;11.63;10.73;;;14.10;99.90;;;;;;10298390;28;20250;-80
2022/05/01 21:38:49;;;;;;;11.17;10.27;;;14.10;99.90;;;;;;10327340;28;20207;-79
2022/05/01 21:43:51;;;;;;;12.00;11.00;;;14.00;99.90;;;;;;10337556;28;20928;-80
2022/05/01 21:48:55;;;;;;;11.87;10.80;;;13.90;99.90;;;;;;10322566;28;20199;-80
2022/05/01 21:53:58;;;;;;;11.97;10.70;;;13.90;99.90;;;;;;10329697;28;21156;-80
2022/05/01 21:59:04;;;;;;;12.00;10.90;;;13.80;99.90;;;;;;10325093;28;20601;-78
2022/05/01 22:04:10;;;;;;;12.17;11.17;;;13.80;99.90;;;;;;10319326;28;20226;-79
2022/05/01 22:09:18;;;;;;;11.67;10.77;;;13.70;99.90;;;;;;10307960;28;20191;-78
2022/05/01 22:14:21;;;;;;;11.70;10.60;;;13.70;99.90;;;;;;10319986;28;20672;-79
2022/05/01 22:19:24;;;;;;;12.40;11.30;;;13.60;99.90;;;;;;10322690;28;20223;-79
2022/05/01 22:24:26;;;;;;;12.37;11.33;;;13.50;99.90;;;;;;10331192;28;20641;-80
2022/05/01 22:29:31;;;;;;;11.60;10.60;;;13.40;99.90;;;;;;10327939;28;20195;-79
2022/05/01 22:34:34;;;;;;;12.03;11.03;;;13.30;99.90;;;;;;10327273;28;20235;-79
2022/05/01 22:39:36;;;;;;;12.40;11.30;;;13.30;99.90;;;;;;10310682;28;20223;-79
2022/05/01 22:44:39;;;;;;;11.23;10.33;;;13.20;99.90;;;;;;10291747;28;20253;-79
2022/05/01 22:49:43;;;;;;;12.40;11.30;;;13.20;99.90;;;;;;10298631;28;20281;-79
2022/05/01 22:54:45;;;;;;;11.03;10.23;;;13.10;99.90;;;;;;10327249;28;20223;-79
2022/05/01 22:59:47;;;;;;;11.27;10.37;;;13.10;99.90;;;;;;10327881;28;20644;-80
2022/05/01 23:04:51;;;;;;;12.47;11.27;;;13.00;99.90;;;;;;10314534;28;20285;-78
2022/05/01 23:09:53;;;;;;;11.80;10.80;;;12.90;99.90;;;;;;10317867;28;20199;-81
2022/05/01 23:14:55;;;;;;;13.67;12.57;;;12.80;99.90;;;;;;10341725;28;20219;-78
2022/05/01 23:19:58;;;;;;;12.30;11.20;;;12.80;99.90;;;;;;10306360;28;20211;-81
2022/05/01 23:25:01;;;;;;;13.70;12.60;;;12.70;99.90;;;;;;10323241;28;20219;-80
2022/05/01 23:35:24;;;;;;;13.43;12.30;;;12.60;99.90;;;;;;10329239;23;20233;-80
2022/05/01 23:40:26;;;;;;;13.80;12.60;;;12.60;99.90;;;;;;10301470;28;20223;-80
2022/05/01 23:45:28;;;;;;;13.60;12.30;;;12.50;99.90;;;;;;10304664;28;20259;-79
2022/05/01 23:50:33;;;;;;;14.10;13.00;;;12.50;99.90;;;;;;10300437;28;20259;-82
2022/05/01 23:55:35;;;;;;;14.37;13.23;;;12.50;99.90;;;;;;10281587;28;20228;-82
